createdAt,value
2018-11-01T00:00:15.560Z,993.4
2018-11-01T00:03:15.342Z,993.4
2018-11-01T00:06:15.858Z,993.5
2018-11-01T00:09:15.635Z,993.5
2018-11-01T00:12:14.978Z,993.4
2018-11-01T00:15:15.444Z,993.4
2018-11-01T00:18:15.030Z,993.4
2018-11-01T00:21:15.404Z,993.4
2018-11-01T00:24:15.467Z,993.5
2018-11-01T00:27:15.141Z,993.5
2018-11-01T00:30:15.266Z,993.4
2018-11-01T00:33:15.233Z,993.4
2018-11-01T00:36:15.823Z,993.6
2018-11-01T00:39:15.384Z,993.6
2018-11-01T00:42:15.911Z,993.6
2018-11-01T00:45:15.504Z,993.7
2018-11-01T00:48:15.037Z,993.7
2018-11-01T00:51:14.989Z,993.8
2018-11-01T00:54:15.132Z,993.7
2018-11-01T00:57:15.826Z,993.7
2018-11-01T01:00:15.510Z,993.7
2018-11-01T01:03:15.445Z,993.7
2018-11-01T01:06:15.984Z,993.6
2018-11-01T01:09:15.561Z,993.7
2018-11-01T01:12:15.470Z,993.7
2018-11-01T01:15:15.154Z,993.7
2018-11-01T01:18:15.155Z,993.7
2018-11-01T01:21:15.806Z,993.6
2018-11-01T01:24:15.402Z,993.7
2018-11-01T01:27:15.167Z,993.7
2018-11-01T01:30:15.069Z,993.7
2018-11-01T01:33:15.885Z,993.7
2018-11-01T01:36:15.313Z,993.6
2018-11-01T01:39:15.280Z,993.6
2018-11-01T01:42:15.049Z,993.5
2018-11-01T01:45:15.358Z,993.4
2018-11-01T01:48:15.263Z,993.3
2018-11-01T01:51:15.777Z,993.3
2018-11-01T01:54:15.475Z,993.4
2018-11-01T01:57:15.284Z,993.4
2018-11-01T02:00:15.839Z,993.3
2018-11-01T02:03:15.499Z,993.3
2018-11-01T02:06:15.601Z,993.2
2018-11-01T02:09:15.687Z,993.2
2018-11-01T02:12:15.709Z,993.1
2018-11-01T02:15:15.412Z,993.1
2018-11-01T02:18:15.137Z,993.0
2018-11-01T02:21:15.109Z,993.0
2018-11-01T02:24:15.467Z,993.0
2018-11-01T02:27:15.148Z,993.0
2018-11-01T02:30:15.236Z,993.0
2018-11-01T02:33:15.224Z,992.9
2018-11-01T02:36:15.477Z,993.0
2018-11-01T02:39:15.967Z,992.9
2018-11-01T02:42:15.696Z,993.0
2018-11-01T02:45:15.530Z,993.1
2018-11-01T02:48:15.783Z,993.0
2018-11-01T02:51:15.471Z,993.0
2018-11-01T02:54:15.662Z,993.0
2018-11-01T02:57:15.669Z,992.9
2018-11-01T03:00:15.188Z,992.8
2018-11-01T03:03:15.934Z,992.8
2018-11-01T03:06:15.615Z,992.9
2018-11-01T03:09:15.374Z,992.8
2018-11-01T03:12:15.055Z,992.7
2018-11-01T03:15:15.886Z,992.6
2018-11-01T03:18:15.651Z,992.6
2018-11-01T03:21:15.688Z,992.5
2018-11-01T03:24:15.655Z,992.7
2018-11-01T03:27:15.512Z,992.8
2018-11-01T03:30:15.378Z,992.8
2018-11-01T03:33:15.218Z,992.7
2018-11-01T03:36:15.863Z,992.6
2018-11-01T03:39:15.662Z,992.5
2018-11-01T03:42:15.398Z,992.5
2018-11-01T03:45:15.215Z,992.6
2018-11-01T03:48:15.408Z,992.7
2018-11-01T03:51:15.560Z,992.8
2018-11-01T03:54:15.164Z,992.8
2018-11-01T03:57:15.269Z,992.7
2018-11-01T04:00:15.263Z,992.6
2018-11-01T04:03:15.280Z,992.5
2018-11-01T04:06:15.245Z,992.5
2018-11-01T04:09:15.012Z,992.4
2018-11-01T04:12:15.689Z,992.4
2018-11-01T04:15:15.845Z,992.3
2018-11-01T04:18:15.905Z,992.2
2018-11-01T04:21:15.594Z,992.1
2018-11-01T04:24:15.353Z,992.1
2018-11-01T04:27:15.814Z,992.1
2018-11-01T04:30:15.567Z,992.2
2018-11-01T04:33:15.417Z,992.3
2018-11-01T04:36:15.731Z,992.3
2018-11-01T04:39:15.699Z,992.4
2018-11-01T04:42:15.397Z,992.6
2018-11-01T04:45:15.457Z,992.6
2018-11-01T04:48:15.185Z,992.7
2018-11-01T04:51:15.712Z,992.5
2018-11-01T04:54:15.439Z,992.4
2018-11-01T04:57:15.774Z,992.3
2018-11-01T05:00:15.148Z,992.3
2018-11-01T05:03:15.819Z,992.1
2018-11-01T05:06:15.425Z,992.1
2018-11-01T05:09:14.998Z,992.2
2018-11-01T05:12:15.543Z,992.2
2018-11-01T05:15:15.517Z,992.3
2018-11-01T05:18:15.249Z,992.3
2018-11-01T05:21:15.768Z,992.1
2018-11-01T05:24:15.767Z,992.1
2018-11-01T05:27:15.652Z,992.0
2018-11-01T05:30:15.237Z,991.9
2018-11-01T05:33:15.666Z,991.9
2018-11-01T05:36:15.244Z,992.0
2018-11-01T05:39:15.370Z,992.1
2018-11-01T05:42:15.100Z,992.3
2018-11-01T05:45:15.292Z,992.4
2018-11-01T05:48:15.929Z,992.4
2018-11-01T05:51:15.567Z,992.3
2018-11-01T05:54:15.421Z,992.4
2018-11-01T05:57:14.924Z,992.4
2018-11-01T06:00:15.899Z,992.5
2018-11-01T06:03:15.545Z,992.5
2018-11-01T06:06:15.033Z,992.5
2018-11-01T06:09:15.527Z,992.5
2018-11-01T06:12:15.165Z,992.5
2018-11-01T06:15:15.582Z,992.4
2018-11-01T06:18:15.870Z,992.4
2018-11-01T06:21:15.518Z,992.3
2018-11-01T06:24:15.041Z,992.3
2018-11-01T06:27:15.819Z,992.2
2018-11-01T06:30:15.414Z,992.2
2018-11-01T06:33:15.449Z,992.3
2018-11-01T06:36:15.277Z,992.4
2018-11-01T06:39:15.017Z,992.4
2018-11-01T06:42:15.918Z,992.4
2018-11-01T06:45:15.613Z,992.4
2018-11-01T06:48:15.206Z,992.4
2018-11-01T06:51:14.955Z,992.3
2018-11-01T06:54:15.045Z,992.3
2018-11-01T06:57:15.690Z,992.3
2018-11-01T07:00:15.322Z,992.4
2018-11-01T07:03:15.946Z,992.5
2018-11-01T07:06:15.857Z,992.5
2018-11-01T07:09:15.822Z,992.4
2018-11-01T07:12:15.621Z,992.4
2018-11-01T07:15:15.422Z,992.2
2018-11-01T07:18:15.130Z,992.2
2018-11-01T07:21:15.919Z,992.0
2018-11-01T07:24:15.485Z,992.0
2018-11-01T07:27:15.281Z,991.9
2018-11-01T07:30:15.206Z,991.7
2018-11-01T07:33:15.689Z,991.7
2018-11-01T07:36:15.449Z,991.7
2018-11-01T07:39:15.056Z,991.6
2018-11-01T07:42:15.821Z,991.7
2018-11-01T07:45:15.684Z,991.8
2018-11-01T07:48:15.324Z,991.7
2018-11-01T07:51:15.461Z,991.7
2018-11-01T07:54:15.143Z,991.8
2018-11-01T07:57:15.083Z,991.8
2018-11-01T08:00:15.796Z,991.9
2018-11-01T08:03:15.474Z,991.9
2018-11-01T08:06:15.231Z,991.9
2018-11-01T08:09:15.758Z,991.9
2018-11-01T08:12:15.443Z,991.9
2018-11-01T08:15:15.076Z,991.7
2018-11-01T08:18:15.854Z,991.6
2018-11-01T08:21:15.761Z,991.6
2018-11-01T08:24:15.720Z,991.6
2018-11-01T08:27:15.426Z,991.6
2018-11-01T08:30:15.229Z,991.7
2018-11-01T08:33:15.778Z,991.7
2018-11-01T08:36:15.614Z,991.7
2018-11-01T08:39:15.932Z,991.8
2018-11-01T08:42:15.692Z,991.8
2018-11-01T08:45:15.212Z,991.7
2018-11-01T08:48:15.216Z,991.8
2018-11-01T08:51:14.926Z,991.8
2018-11-01T08:54:15.727Z,991.9
2018-11-01T08:57:15.242Z,992.0
2018-11-01T09:00:15.917Z,992.0
2018-11-01T09:03:15.635Z,991.9
2018-11-01T09:06:15.498Z,992.0
2018-11-01T09:09:15.109Z,992.0
2018-11-01T09:12:15.797Z,992.0
2018-11-01T09:15:15.415Z,992.2
2018-11-01T09:18:15.034Z,992.2
2018-11-01T09:21:15.574Z,992.2
2018-11-01T09:24:16.006Z,992.2
2018-11-01T09:27:15.845Z,992.3
2018-11-01T09:30:15.818Z,992.3
2018-11-01T09:33:15.572Z,992.3
2018-11-01T09:36:15.403Z,992.3
2018-11-01T09:39:15.222Z,992.4
2018-11-01T09:42:15.944Z,992.4
2018-11-01T09:45:15.512Z,992.4
2018-11-01T09:48:15.389Z,992.5
2018-11-01T09:51:15.948Z,992.4
2018-11-01T09:54:15.808Z,992.5
2018-11-01T09:57:15.318Z,992.5
2018-11-01T10:00:15.116Z,992.6
2018-11-01T10:03:15.754Z,992.6
2018-11-01T10:06:15.717Z,992.6
2018-11-01T10:09:15.490Z,992.7
2018-11-01T10:12:16.074Z,992.7
2018-11-01T10:15:16.177Z,992.7
2018-11-01T10:18:15.709Z,992.7
2018-11-01T10:21:15.766Z,992.7
2018-11-01T10:24:15.138Z,992.6
2018-11-01T10:27:19.511Z,992.7
2018-11-01T10:30:15.256Z,992.7
2018-11-01T10:33:15.777Z,992.7
2018-11-01T10:36:15.615Z,992.6
2018-11-01T10:39:15.154Z,992.6
2018-11-01T10:42:16.144Z,992.4
2018-11-01T10:45:15.925Z,992.4
2018-11-01T10:48:15.556Z,992.5
2018-11-01T10:51:15.262Z,992.4
2018-11-01T10:54:15.750Z,992.4
2018-11-01T10:57:15.777Z,992.4
2018-11-01T11:00:15.680Z,992.2
2018-11-01T11:03:15.085Z,992.3
2018-11-01T11:06:15.761Z,992.2
2018-11-01T11:09:15.994Z,992.2
2018-11-01T11:12:15.614Z,992.2
2018-11-01T11:15:15.554Z,992.2
2018-11-01T11:18:15.088Z,992.2
2018-11-01T11:21:16.591Z,992.1
2018-11-01T11:24:15.433Z,992.0
2018-11-01T11:27:20.412Z,991.8
2018-11-01T11:30:15.906Z,991.8
2018-11-01T11:33:15.840Z,991.8
2018-11-01T11:36:15.725Z,991.8
2018-11-01T11:39:15.592Z,991.7
2018-11-01T11:42:15.463Z,991.8
2018-11-01T11:45:15.290Z,991.8
2018-11-01T11:48:15.838Z,991.7
2018-11-01T11:51:15.642Z,991.7
2018-11-01T11:54:15.233Z,991.7
2018-11-01T11:57:15.152Z,991.7
2018-11-01T12:00:15.341Z,991.8
2018-11-01T12:03:15.539Z,991.8
2018-11-01T12:06:16.051Z,992.0
2018-11-01T12:09:14.992Z,992.1
2018-11-01T12:12:15.703Z,992.1
2018-11-01T12:15:15.696Z,992.1
2018-11-01T12:18:15.084Z,992.2
2018-11-01T12:21:15.649Z,992.2
2018-11-01T12:24:15.273Z,992.3
2018-11-01T12:27:15.247Z,992.3
2018-11-01T12:30:15.168Z,992.4
2018-11-01T12:33:15.679Z,992.4
2018-11-01T12:36:15.472Z,992.3
2018-11-01T12:39:15.660Z,992.3
2018-11-01T12:42:15.316Z,992.4
2018-11-01T12:45:15.154Z,992.4
2018-11-01T12:48:16.107Z,992.5
2018-11-01T12:51:17.207Z,992.4
2018-11-01T12:54:15.995Z,992.3
2018-11-01T12:57:15.799Z,992.3
2018-11-01T13:00:15.979Z,992.2
2018-11-01T13:03:15.148Z,992.3
2018-11-01T13:06:15.797Z,992.3
2018-11-01T13:09:15.726Z,992.4
2018-11-01T13:12:15.895Z,992.3
2018-11-01T13:15:15.153Z,992.3
2018-11-01T13:18:16.032Z,992.2
2018-11-01T13:21:16.037Z,992.2
2018-11-01T13:24:15.959Z,992.3
2018-11-01T13:27:15.998Z,992.3
2018-11-01T13:30:15.485Z,992.3
2018-11-01T13:33:15.371Z,992.4
2018-11-01T13:36:15.232Z,992.5
2018-11-01T13:39:15.459Z,992.5
2018-11-01T13:42:15.830Z,992.6
2018-11-01T13:45:16.943Z,992.7
2018-11-01T13:48:16.086Z,992.7
2018-11-01T13:51:15.768Z,992.6
2018-11-01T13:54:16.070Z,992.6
2018-11-01T13:57:15.921Z,992.6
2018-11-01T14:00:15.496Z,992.6
2018-11-01T14:03:15.221Z,992.6
2018-11-01T14:06:15.755Z,992.7
2018-11-01T14:09:16.011Z,992.7
2018-11-01T14:12:15.173Z,992.7
2018-11-01T14:15:15.924Z,992.7
2018-11-01T14:18:15.577Z,992.7
2018-11-01T14:21:15.285Z,992.6
2018-11-01T14:24:15.353Z,992.6
2018-11-01T14:27:15.259Z,992.7
2018-11-01T14:30:15.899Z,992.8
2018-11-01T14:33:15.865Z,992.7
2018-11-01T14:36:41.226Z,992.8
2018-11-01T14:42:15.925Z,992.9
2018-11-01T14:45:15.419Z,992.9
2018-11-01T14:48:15.529Z,992.8
2018-11-01T14:51:16.078Z,992.8
2018-11-01T14:54:15.749Z,992.7
2018-11-01T14:57:16.744Z,992.7
2018-11-01T15:00:15.716Z,992.8
2018-11-01T15:03:15.624Z,992.8
2018-11-01T15:06:15.204Z,992.7
2018-11-01T15:09:15.572Z,992.7
2018-11-01T15:12:15.859Z,992.6
2018-11-01T15:16:57.251Z,992.6
2018-11-01T15:21:31.742Z,992.5
2018-11-01T15:27:16.151Z,992.5
2018-11-01T15:30:15.313Z,992.5
2018-11-01T15:33:15.922Z,992.4
2018-11-01T15:36:25.055Z,992.4
2018-11-01T15:39:16.107Z,992.4
2018-11-01T15:42:15.628Z,992.4
2018-11-01T15:45:15.707Z,992.4
2018-11-01T15:48:16.081Z,992.5
2018-11-01T15:51:15.202Z,992.6
2018-11-01T15:54:15.384Z,992.7
2018-11-01T15:57:15.817Z,992.7
2018-11-01T16:00:15.631Z,992.7
2018-11-01T16:03:25.038Z,992.7
2018-11-01T16:06:16.748Z,992.6
2018-11-01T16:09:16.866Z,992.7
2018-11-01T16:12:15.636Z,992.7
2018-11-01T16:15:15.851Z,992.7
2018-11-01T16:18:15.198Z,992.8
2018-11-01T16:21:15.119Z,992.9
2018-11-01T16:24:15.119Z,992.9
2018-11-01T16:27:16.037Z,992.9
2018-11-01T16:30:15.483Z,993.0
2018-11-01T16:33:15.433Z,993.0
2018-11-01T16:36:15.736Z,993.0
2018-11-01T16:39:15.735Z,993.1
2018-11-01T16:42:15.222Z,993.0
2018-11-01T16:45:15.451Z,993.0
2018-11-01T16:48:15.618Z,993.1
2018-11-01T16:51:16.137Z,993.1
2018-11-01T16:54:15.482Z,993.0
2018-11-01T16:57:16.142Z,993.0
2018-11-01T17:00:15.484Z,993.0
2018-11-01T17:03:15.683Z,993.1
2018-11-01T17:06:15.046Z,993.3
2018-11-01T17:09:16.013Z,993.3
2018-11-01T17:12:18.224Z,993.2
2018-11-01T17:15:33.473Z,993.3
2018-11-01T17:18:16.734Z,993.3
2018-11-01T17:21:15.738Z,993.4
2018-11-01T17:24:16.030Z,993.5
2018-11-01T17:27:15.427Z,993.5
2018-11-01T17:30:15.448Z,993.6
2018-11-01T17:33:15.558Z,993.7
2018-11-01T17:36:15.763Z,993.9
2018-11-01T17:39:15.945Z,994.1
2018-11-01T17:42:15.516Z,994.1
2018-11-01T17:45:15.516Z,994.1
2018-11-01T17:48:15.352Z,994.1
2018-11-01T17:51:15.717Z,994.2
2018-11-01T17:54:15.072Z,994.1
2018-11-01T17:57:15.839Z,994.2
2018-11-01T18:00:15.222Z,994.2
2018-11-01T18:03:16.071Z,994.2
2018-11-01T18:06:15.841Z,994.2
2018-11-01T18:09:15.556Z,994.2
2018-11-01T18:12:20.307Z,994.3
2018-11-01T18:15:15.741Z,994.3
2018-11-01T18:18:15.473Z,994.4
2018-11-01T18:21:15.186Z,994.5
2018-11-01T18:24:15.018Z,994.5
2018-11-01T18:27:15.605Z,994.5
2018-11-01T18:30:15.082Z,994.4
2018-11-01T18:33:15.731Z,994.5
2018-11-01T18:36:15.912Z,994.4
2018-11-01T18:39:15.877Z,994.4
2018-11-01T18:42:15.841Z,994.4
2018-11-01T18:45:15.064Z,994.4
2018-11-01T18:48:15.864Z,994.4
2018-11-01T18:51:15.399Z,994.5
2018-11-01T18:54:15.984Z,994.5
2018-11-01T18:57:15.627Z,994.6
2018-11-01T19:00:15.184Z,994.7
2018-11-01T19:03:15.084Z,994.6
2018-11-01T19:06:15.210Z,994.6
2018-11-01T19:09:16.009Z,994.6
2018-11-01T19:12:15.741Z,994.7
2018-11-01T19:15:15.298Z,994.6
2018-11-01T19:18:15.149Z,994.6
2018-11-01T19:21:16.009Z,994.8
2018-11-01T19:24:15.109Z,994.7
2018-11-01T19:27:16.116Z,994.8
2018-11-01T19:30:15.434Z,994.8
2018-11-01T19:33:15.487Z,994.9
2018-11-01T19:36:14.981Z,994.8
2018-11-01T19:39:15.157Z,994.9
2018-11-01T19:42:15.816Z,994.9
2018-11-01T19:45:15.390Z,994.9
2018-11-01T19:48:15.458Z,994.8
2018-11-01T19:51:15.643Z,994.9
2018-11-01T19:54:15.728Z,994.9
2018-11-01T19:57:15.786Z,995.0
2018-11-01T20:00:15.900Z,994.9
2018-11-01T20:03:15.599Z,994.9
2018-11-01T20:06:15.139Z,994.9
2018-11-01T20:09:15.582Z,995.0
2018-11-01T20:12:15.291Z,995.1
2018-11-01T20:15:15.172Z,995.2
2018-11-01T20:18:15.916Z,995.3
2018-11-01T20:21:15.653Z,995.4
2018-11-01T20:24:15.725Z,995.4
2018-11-01T20:27:15.442Z,995.6
2018-11-01T20:30:15.661Z,995.6
2018-11-01T20:33:15.498Z,995.6
2018-11-01T20:36:15.618Z,995.6
2018-11-01T20:39:15.644Z,995.6
2018-11-01T20:42:15.182Z,995.6
2018-11-01T20:45:15.039Z,995.6
2018-11-01T20:48:15.680Z,995.6
2018-11-01T20:51:15.516Z,995.7
2018-11-01T20:54:15.472Z,995.6
2018-11-01T20:57:15.243Z,995.7
2018-11-01T21:00:15.929Z,995.7
2018-11-01T21:03:15.213Z,995.6
2018-11-01T21:06:15.877Z,995.6
2018-11-01T21:09:16.372Z,995.6
2018-11-01T21:12:15.996Z,995.6
2018-11-01T21:15:15.722Z,995.7
2018-11-01T21:18:15.597Z,995.8
2018-11-01T21:21:15.537Z,995.8
2018-11-01T21:24:15.770Z,995.8
2018-11-01T21:27:15.305Z,995.8
2018-11-01T21:30:15.965Z,995.8
2018-11-01T21:33:15.541Z,995.8
2018-11-01T21:36:15.305Z,995.8
2018-11-01T21:39:15.415Z,995.9
2018-11-01T21:42:15.864Z,995.9
2018-11-01T21:45:15.634Z,995.9
2018-11-01T21:48:15.619Z,995.9
2018-11-01T21:51:20.237Z,995.9
2018-11-01T21:54:15.819Z,996.0
2018-11-01T21:57:15.544Z,996.0
2018-11-01T22:00:15.230Z,996.1
2018-11-01T22:03:15.757Z,996.0
2018-11-01T22:06:15.254Z,996.0
2018-11-01T22:09:15.121Z,996.1
2018-11-01T22:12:15.420Z,996.1
2018-11-01T22:15:15.133Z,996.1
2018-11-01T22:18:15.653Z,996.1
2018-11-01T22:21:15.128Z,996.1
2018-11-01T22:24:15.411Z,996.1
2018-11-01T22:27:15.694Z,996.0
2018-11-01T22:30:15.135Z,996.1
2018-11-01T22:33:15.426Z,996.2
2018-11-01T22:36:15.528Z,996.2
2018-11-01T22:39:15.176Z,996.0
2018-11-01T22:42:15.644Z,995.9
2018-11-01T22:45:15.163Z,995.7
2018-11-01T22:48:15.790Z,995.8
2018-11-01T22:51:15.419Z,995.8
2018-11-01T22:54:15.229Z,995.9
2018-11-01T22:57:15.835Z,995.9
2018-11-01T23:00:15.276Z,995.9
2018-11-01T23:03:15.945Z,995.9
2018-11-01T23:06:15.657Z,995.8
2018-11-01T23:09:15.167Z,995.8
2018-11-01T23:12:15.881Z,995.8
2018-11-01T23:15:15.547Z,995.9
2018-11-01T23:18:15.190Z,996.0
2018-11-01T23:21:15.603Z,996.0
2018-11-01T23:24:15.072Z,996.2
2018-11-01T23:27:15.463Z,996.4
2018-11-01T23:30:15.016Z,996.5
2018-11-01T23:33:15.595Z,996.6
2018-11-01T23:36:15.463Z,996.6
2018-11-01T23:39:15.642Z,996.6
2018-11-01T23:42:15.394Z,996.7
2018-11-01T23:45:15.353Z,996.7
2018-11-01T23:48:15.523Z,996.6
2018-11-01T23:51:15.350Z,996.6
2018-11-01T23:54:15.006Z,996.6
2018-11-01T23:57:15.482Z,996.6
